Airfield :







YOU CAN JOIN US ON...

 
LOGIN :

Register | Disclaimer

   EN    FR    IT 

 









Legend :    VFR   Marginal VFR   IFR   Intensive IFR   Very Intensive IFR
Visi :
Ceiling :
>= 8 km
>= 3000ft
5 to 8 km
1000 to 3000 ft
1500m to 5 km
500 to 1000 ft
800 to 1500m
200 to 500 ft
< 800m
< 200 ft
Symbols :   Thunderstorms  Fog  Heavy snow  Heavy precipitations  Wind > 20 kt






- Airport Elevation : 108 ft
- IATA code : YAY


CYAY - St Anthony

CURRENT METAR :
  • 241000Z AUTO 30012G19KT 9SM BKN070 M06/M11 A2999 RMK SLP158

EXPIRED METARs :
  • 240900Z AUTO 30018G23KT 9SM SCT024 SCT036 OVC070 M05/M10 A2994 RMK SLP141
  • 240811Z AUTO 29015G21KT 9SM SCT021 OVC030 M04/M08 A2990 RMK SLP128
  • 240800Z AUTO 30013G23KT 9SM -SN OVC021 M03/M07 A2989 RMK SLP125
  • 240747Z AUTO 28012G17KT 9SM -SN BKN021 BKN026 OVC036 M03/M05 A2988 RMK SLP122

TAF AMD TAF CYAY
Valid from the 24 at 09:00 until the 24 at 20:00 UTC


240909Z 2409/2420 30015G25KT P6SM BKN040
FM241200 30015G25KT P6SM SCT030
BECMG 2415/2417 32010G20KT RMK FCST BASED ON AUTO OBS. NXT FCST BY 241400Z



MET'MAP, your aeronautical weather chart ! - Copyright ORBIFLY December 2007 - Disclaimer

ORBIFLY MET'MAP TEAM :

Programming & Development : Alexandra Zaïnal
Concept & original design : Baudouin d'Aumeries
Assistance for programming : Marc-Olivier Méhu
Technical & hardware support : Manuel Goepfert

Contact : metmap@orbifly.com




SOURCES & CREDITS :

   NOAA